Time;durP1;ratioP1;P1;durP2;ratioP2;P2;SDS_P1;SDS_P2;PMS_P1;PMS_P2;Temp;Humidity;BMP_temperature;BMP_pressure;BME280_temperature;BME280_humidity;BME280_pressure;Samples;Min_cycle;Max_cycle;Signal;HPM_P1;HPM_P2
2023/03/22 00:00:27;;;;;;;9.00;1.60;;;11.00;99.90;;;;;;4990715;28;20230;-66
2023/03/22 00:02:54;;;;;;;14.87;2.27;;;10.90;99.90;;;;;;4989897;28;20199;-67
2023/03/22 00:05:20;;;;;;;17.17;2.10;;;10.90;99.90;;;;;;4990505;28;20195;-67
2023/03/22 00:07:49;;;;;;;22.33;2.53;;;10.90;99.90;;;;;;4990206;28;20214;-67
2023/03/22 00:10:15;;;;;;;10.57;1.63;;;11.00;99.90;;;;;;4991662;28;20171;-67
2023/03/22 00:12:41;;;;;;;15.87;2.07;;;11.00;99.90;;;;;;4976952;28;20199;-67
2023/03/22 00:15:08;;;;;;;11.77;1.97;;;11.10;99.90;;;;;;4993856;28;20217;-66
2023/03/22 00:17:35;;;;;;;9.13;1.87;;;11.00;99.90;;;;;;4994266;28;20163;-66
2023/03/22 00:20:05;;;;;;;7.47;0.87;;;11.20;99.90;;;;;;4994308;28;20210;-67
2023/03/22 00:22:31;;;;;;;16.80;2.47;;;11.10;99.90;;;;;;4994043;28;20267;-66
2023/03/22 00:24:57;;;;;;;8.40;1.30;;;11.00;99.90;;;;;;4986256;28;20306;-66
2023/03/22 00:27:22;;;;;;;13.80;1.73;;;11.00;99.90;;;;;;4992976;28;20681;-65
2023/03/22 00:29:51;;;;;;;10.77;1.70;;;11.00;99.90;;;;;;4980969;28;20654;-66
2023/03/22 00:32:17;;;;;;;10.43;1.50;;;11.00;99.90;;;;;;4991375;28;20175;-66
2023/03/22 00:34:42;;;;;;;8.73;1.70;;;11.10;99.90;;;;;;4991953;28;20231;-66
2023/03/22 00:37:08;;;;;;;11.70;2.00;;;11.10;99.90;;;;;;4993130;28;20183;-66
2023/03/22 00:39:34;;;;;;;11.20;1.50;;;11.10;99.90;;;;;;4991930;28;20285;-66
2023/03/22 00:42:00;;;;;;;10.17;2.10;;;11.10;99.90;;;;;;4992459;28;20194;-66
2023/03/22 00:44:25;;;;;;;7.33;1.50;;;11.20;99.90;;;;;;4993023;28;20171;-66
2023/03/22 00:46:51;;;;;;;9.83;1.63;;;11.10;99.90;;;;;;4992244;28;20254;-67
2023/03/22 00:49:17;;;;;;;11.80;2.30;;;11.10;99.90;;;;;;4992346;28;20262;-66
2023/03/22 00:51:43;;;;;;;9.77;1.80;;;11.10;99.90;;;;;;4988010;28;20205;-66
2023/03/22 00:54:09;;;;;;;10.23;2.27;;;11.00;99.90;;;;;;4992661;28;20648;-66
2023/03/22 00:56:36;;;;;;;15.50;2.30;;;11.10;99.90;;;;;;4986051;28;20225;-66
2023/03/22 00:59:02;;;;;;;9.43;1.67;;;11.10;99.90;;;;;;4993316;28;20211;-66
2023/03/22 01:01:28;;;;;;;6.80;1.53;;;;;;;;;;4993609;28;20673;-67
2023/03/22 01:03:54;;;;;;;13.13;1.73;;;;;;;;;;4992798;28;20646;-67
2023/03/22 01:06:20;;;;;;;2.57;0.77;;;11.10;99.90;;;;;;4992773;28;20191;-67
2023/03/22 01:08:49;;;;;;;10.70;1.73;;;11.10;99.90;;;;;;4992758;28;20581;-67
2023/03/22 01:11:15;;;;;;;11.50;1.57;;;11.10;99.90;;;;;;4992121;28;20258;-66
2023/03/22 01:13:41;;;;;;;9.53;1.77;;;11.10;99.90;;;;;;4993487;28;20221;-67
2023/03/22 01:16:08;;;;;;;4.93;1.00;;;11.10;99.90;;;;;;4992482;28;20551;-67
2023/03/22 01:18:34;;;;;;;7.33;1.70;;;11.10;99.90;;;;;;4989008;28;20183;-66
2023/03/22 01:21:00;;;;;;;8.50;1.53;;;11.00;99.90;;;;;;4989919;28;20257;-66
2023/03/22 01:23:27;;;;;;;11.73;1.80;;;11.10;99.90;;;;;;4974915;28;20610;-65
2023/03/22 01:25:52;;;;;;;12.03;1.80;;;11.10;99.90;;;;;;4993215;28;20206;-66
2023/03/22 01:28:18;;;;;;;9.57;1.57;;;11.10;99.90;;;;;;4963205;28;20647;-67
2023/03/22 01:30:44;;;;;;;6.60;1.60;;;;;;;;;;4992657;28;20209;-67
2023/03/22 01:33:09;;;;;;;5.27;1.20;;;11.00;99.90;;;;;;4992560;28;20675;-67
2023/03/22 01:35:35;;;;;;;5.40;1.37;;;11.10;99.90;;;;;;4991149;28;20226;-67
2023/03/22 01:38:01;;;;;;;8.67;1.37;;;10.90;99.90;;;;;;4992310;28;20183;-66
2023/03/22 01:40:27;;;;;;;5.53;0.97;;;10.90;99.90;;;;;;4992177;28;20698;-66
2023/03/22 01:42:54;;;;;;;8.70;1.37;;;10.90;99.90;;;;;;4980473;28;20212;-67
2023/03/22 01:45:34;;;;;;;9.77;1.37;;;9.70;99.90;;;;;;4982225;28;20249;-66
2023/03/22 01:48:08;;;;;;;5.70;1.37;;;10.80;99.90;;;;;;4991682;28;20187;-66
2023/03/22 01:50:36;;;;;;;5.93;0.87;;;10.90;99.90;;;;;;4990722;28;20269;-66
2023/03/22 01:53:03;;;;;;;4.33;0.57;;;11.20;99.90;;;;;;4990967;28;20175;-67
2023/03/22 01:55:32;;;;;;;10.00;1.33;;;10.80;99.90;;;;;;4991616;28;20191;-67
2023/03/22 01:57:58;;;;;;;8.20;1.03;;;10.80;99.90;;;;;;4990255;28;20369;-67
2023/03/22 02:00:24;;;;;;;10.33;1.30;;;10.80;99.90;;;;;;4980746;28;20211;-67
2023/03/22 02:02:51;;;;;;;6.60;0.90;;;10.80;99.90;;;;;;4991881;28;20254;-68
2023/03/22 02:05:18;;;;;;;9.70;1.30;;;10.60;99.90;;;;;;4991777;28;20183;-67
2023/03/22 02:07:44;;;;;;;3.03;0.83;;;10.80;99.90;;;;;;4991759;28;20175;-67
2023/03/22 02:10:13;;;;;;;7.63;0.77;;;10.80;99.90;;;;;;4991907;28;20190;-67
2023/03/22 02:13:03;;;;;;;7.27;0.53;;;10.80;99.90;;;;;;4991212;28;20230;-67
2023/03/22 02:15:32;;;;;;;3.83;0.60;;;10.90;99.90;;;;;;4967664;28;20191;-66
2023/03/22 02:18:16;;;;;;;7.13;0.90;;;10.90;99.90;;;;;;4990633;28;20214;-67
2023/03/22 02:20:42;;;;;;;5.23;0.90;;;10.90;99.90;;;;;;4991737;28;20251;-66
2023/03/22 02:23:36;;;;;;;3.00;0.57;;;10.80;99.90;;;;;;4992396;28;20257;-67
2023/03/22 02:26:23;;;;;;;4.73;0.87;;;10.90;99.90;;;;;;4992261;28;20175;-67
2023/03/22 02:28:57;;;;;;;9.70;1.17;;;10.90;99.90;;;;;;4991697;28;20253;-67
2023/03/22 02:31:47;;;;;;;6.23;1.13;;;10.90;99.90;;;;;;4992131;28;20195;-67
2023/03/22 02:34:36;;;;;;;5.47;0.80;;;10.90;99.90;;;;;;4991130;28;20241;-66
2023/03/22 02:37:16;;;;;;;4.27;0.93;;;11.00;99.90;;;;;;4990620;28;20179;-67
2023/03/22 02:40:07;;;;;;;6.23;0.80;;;10.90;99.90;;;;;;4990719;28;20266;-67
2023/03/22 02:42:35;;;;;;;4.23;0.70;;;10.90;99.90;;;;;;4990180;28;20185;-70
2023/03/22 02:45:08;;;;;;;5.90;1.20;;;10.90;99.90;;;;;;4984053;28;20238;-69
2023/03/22 02:47:43;;;;;;;3.70;0.77;;;11.00;99.90;;;;;;4971584;28;20661;-69
2023/03/22 02:50:21;;;;;;;4.67;1.03;;;11.10;99.90;;;;;;4979695;28;20571;-69
2023/03/22 02:53:16;;;;;;;2.43;0.70;;;11.00;99.90;;;;;;4991565;28;20179;-64
2023/03/22 02:55:59;;;;;;;5.90;1.30;;;10.90;99.90;;;;;;4991157;28;20190;-63
2023/03/22 02:58:45;;;;;;;9.30;1.30;;;10.90;99.90;;;;;;4991423;28;20206;-64
2023/03/22 03:01:24;;;;;;;3.73;0.70;;;10.90;99.90;;;;;;4989844;28;20238;-64
2023/03/22 03:03:55;;;;;;;4.60;1.10;;;10.90;99.90;;;;;;4990696;28;20183;-65
2023/03/22 03:06:24;;;;;;;6.33;0.83;;;10.90;99.90;;;;;;4990335;28;20672;-64
2023/03/22 03:08:52;;;;;;;4.93;1.10;;;11.00;99.90;;;;;;4991174;28;20638;-65
2023/03/22 03:11:18;;;;;;;4.47;0.77;;;10.90;99.90;;;;;;4983718;28;20797;-64
2023/03/22 03:13:46;;;;;;;4.87;1.10;;;11.00;99.90;;;;;;4991147;28;20226;-64
2023/03/22 03:16:16;;;;;;;6.20;1.13;;;10.90;99.90;;;;;;4990298;28;20217;-65
2023/03/22 03:18:59;;;;;;;3.23;0.63;;;10.90;99.90;;;;;;4990643;28;20206;-65
2023/03/22 03:21:33;;;;;;;4.13;0.80;;;11.00;99.90;;;;;;4989838;28;20681;-65
2023/03/22 03:24:20;;;;;;;4.07;0.87;;;11.00;99.90;;;;;;4990373;28;20262;-67
2023/03/22 03:26:52;;;;;;;2.33;0.50;;;10.90;99.90;;;;;;4990848;28;20183;-64
2023/03/22 03:29:38;;;;;;;3.30;0.67;;;11.00;99.90;;;;;;4988395;28;20209;-64
2023/03/22 03:32:13;;;;;;;4.20;0.70;;;11.00;99.90;;;;;;4989482;28;20179;-64
2023/03/22 03:34:51;;;;;;;4.97;0.90;;;11.00;99.90;;;;;;4990236;28;20277;-65
2023/03/22 03:37:21;;;;;;;4.93;0.60;;;11.00;99.90;;;;;;4989947;28;20260;-64
2023/03/22 03:40:04;;;;;;;5.37;0.70;;;11.00;99.90;;;;;;4989564;28;20183;-65
2023/03/22 03:42:30;;;;;;;3.17;0.60;;;11.00;99.90;;;;;;4990521;28;20257;-65
2023/03/22 03:44:57;;;;;;;9.60;1.00;;;11.00;99.90;;;;;;4990820;28;20178;-65
2023/03/22 03:47:24;;;;;;;3.90;0.70;;;11.00;99.90;;;;;;4993848;28;20221;-64
2023/03/22 03:49:50;;;;;;;4.37;0.90;;;11.00;99.90;;;;;;4993060;28;20172;-65
2023/03/22 03:52:16;;;;;;;2.77;0.70;;;10.40;99.90;;;;;;4976230;28;20186;-65
2023/03/22 03:54:42;;;;;;;2.20;0.60;;;10.90;99.90;;;;;;4994824;28;20175;-65
2023/03/22 03:57:07;;;;;;;5.47;1.13;;;11.00;99.90;;;;;;4992816;28;20713;-65
2023/03/22 03:59:33;;;;;;;4.00;0.80;;;11.00;99.90;;;;;;4993949;28;20790;-65
2023/03/22 04:01:59;;;;;;;8.23;1.00;;;11.00;99.90;;;;;;4993865;28;20195;-64
2023/03/22 04:04:27;;;;;;;5.70;0.87;;;11.00;99.90;;;;;;4993918;28;20230;-65
2023/03/22 04:06:58;;;;;;;2.07;0.67;;;11.00;99.90;;;;;;4994050;28;20175;-66
2023/03/22 04:09:26;;;;;;;3.77;0.43;;;11.00;99.90;;;;;;4993960;28;20187;-65
2023/03/22 04:11:52;;;;;;;7.03;1.00;;;11.00;99.90;;;;;;4994395;28;20282;-65
2023/03/22 04:14:18;;;;;;;4.60;0.90;;;11.00;99.90;;;;;;4994188;28;20218;-65
2023/03/22 04:16:44;;;;;;;3.83;0.40;;;11.00;99.90;;;;;;4993214;28;20206;-65
2023/03/22 04:19:10;;;;;;;2.20;0.40;;;11.00;99.90;;;;;;4993606;28;20672;-65
2023/03/22 04:21:35;;;;;;;4.37;0.60;;;11.10;99.90;;;;;;4993880;28;20310;-66
2023/03/22 04:24:01;;;;;;;2.97;0.63;;;11.00;99.90;;;;;;4993218;28;20172;-65
2023/03/22 04:26:27;;;;;;;2.10;0.50;;;11.00;99.90;;;;;;4994521;28;20201;-65
2023/03/22 04:28:52;;;;;;;1.23;0.30;;;11.00;99.90;;;;;;4992837;28;20610;-65
2023/03/22 04:31:18;;;;;;;4.23;0.47;;;11.00;99.90;;;;;;4993904;28;20185;-65
2023/03/22 04:33:47;;;;;;;1.20;0.30;;;11.20;99.90;;;;;;4993690;28;20264;-65
2023/03/22 04:36:16;;;;;;;2.70;0.73;;;11.00;99.90;;;;;;4993841;28;20561;-65
2023/03/22 04:38:42;;;;;;;4.33;0.40;;;11.10;99.90;;;;;;4993810;28;20209;-66
2023/03/22 04:41:08;;;;;;;0.83;0.20;;;11.10;99.90;;;;;;4993362;28;20219;-65
2023/03/22 04:43:38;;;;;;;1.57;0.40;;;11.10;99.90;;;;;;4992997;28;20167;-65
2023/03/22 04:46:05;;;;;;;1.53;0.40;;;11.10;99.90;;;;;;4993687;28;20183;-65
2023/03/22 04:48:31;;;;;;;1.43;0.23;;;11.10;99.90;;;;;;4993076;28;20179;-65
2023/03/22 04:51:02;;;;;;;1.23;0.30;;;11.00;99.90;;;;;;4991065;28;20190;-65
2023/03/22 04:53:28;;;;;;;2.13;0.13;;;11.20;99.90;;;;;;4992957;28;20179;-65
2023/03/22 04:55:57;;;;;;;1.50;0.37;;;11.20;99.90;;;;;;4992377;28;20642;-64
2023/03/22 04:58:25;;;;;;;1.33;0.30;;;11.20;99.90;;;;;;4992817;28;20183;-64
2023/03/22 05:00:52;;;;;;;2.47;0.30;;;11.20;99.90;;;;;;4991620;28;20294;-65
2023/03/22 05:03:21;;;;;;;1.00;0.20;;;11.20;99.90;;;;;;4992041;28;20673;-64
2023/03/22 05:05:58;;;;;;;2.63;0.53;;;11.20;99.90;;;;;;4992719;28;20183;-65
2023/03/22 05:08:26;;;;;;;2.27;0.20;;;11.20;99.90;;;;;;4992555;28;20179;-65
2023/03/22 05:10:53;;;;;;;1.40;0.23;;;11.30;99.90;;;;;;4992620;28;20199;-65
2023/03/22 05:13:20;;;;;;;1.77;0.50;;;11.20;99.90;;;;;;4992274;28;20171;-65
2023/03/22 05:15:48;;;;;;;4.50;0.70;;;11.20;99.90;;;;;;4972400;28;20654;-64
2023/03/22 05:18:14;;;;;;;3.07;0.40;;;11.20;99.90;;;;;;4973108;28;20274;-64
2023/03/22 05:20:44;;;;;;;5.43;0.70;;;11.20;99.90;;;;;;4988768;28;20217;-64
2023/03/22 05:23:10;;;;;;;3.07;0.80;;;11.10;99.90;;;;;;4992943;28;20262;-64
2023/03/22 05:25:37;;;;;;;1.47;0.50;;;11.10;99.90;;;;;;4992814;28;20254;-64
2023/03/22 05:28:03;;;;;;;3.67;0.73;;;11.10;99.90;;;;;;4991553;28;20221;-64
2023/03/22 05:30:30;;;;;;;3.33;0.57;;;11.10;99.90;;;;;;4991640;28;20201;-64
2023/03/22 05:33:03;;;;;;;5.33;0.80;;;11.10;99.90;;;;;;4992215;28;20270;-64
2023/03/22 05:35:30;;;;;;;3.90;0.50;;;11.10;99.90;;;;;;4991703;28;20222;-64
2023/03/22 05:37:56;;;;;;;8.70;0.93;;;11.10;99.90;;;;;;4991084;28;20183;-64
2023/03/22 05:40:23;;;;;;;5.57;1.00;;;11.00;99.90;;;;;;4991028;28;20199;-64
2023/03/22 05:42:49;;;;;;;6.97;1.27;;;11.00;99.90;;;;;;4989645;28;20187;-64
2023/03/22 05:45:15;;;;;;;8.70;1.27;;;11.00;99.90;;;;;;4988011;28;20186;-63
2023/03/22 05:47:41;;;;;;;10.90;1.57;;;;;;;;;;4990606;28;20179;-64
2023/03/22 05:50:09;;;;;;;8.23;1.83;;;10.90;99.90;;;;;;4988970;28;20179;-64
2023/03/22 05:52:35;;;;;;;13.30;2.00;;;10.90;99.90;;;;;;4991669;28;20191;-64
2023/03/22 05:55:01;;;;;;;16.13;2.60;;;10.90;99.90;;;;;;4992373;28;20188;-63
2023/03/22 05:57:28;;;;;;;21.17;2.80;;;10.90;99.90;;;;;;4991457;28;20278;-64
2023/03/22 05:59:55;;;;;;;17.47;2.27;;;10.80;99.90;;;;;;4990958;28;20176;-63
2023/03/22 06:02:21;;;;;;;12.47;2.43;;;10.80;99.90;;;;;;4991917;28;20181;-68
2023/03/22 06:04:47;;;;;;;17.33;3.17;;;11.10;99.90;;;;;;4973015;28;20187;-64
2023/03/22 06:07:14;;;;;;;21.87;3.27;;;10.80;99.90;;;;;;4981658;28;20293;-64
2023/03/22 06:09:40;;;;;;;25.23;4.30;;;10.70;99.90;;;;;;4991418;28;20207;-64
2023/03/22 06:12:06;;;;;;;31.27;3.83;;;10.70;99.90;;;;;;4990281;28;20896;-62
2023/03/22 06:14:31;;;;;;;26.57;3.13;;;10.60;99.90;;;;;;4991689;28;20270;-62
2023/03/22 06:16:57;;;;;;;23.33;3.40;;;10.50;99.90;;;;;;4990628;28;20179;-62
2023/03/22 06:19:24;;;;;;;25.03;4.43;;;10.60;99.90;;;;;;4985953;28;20224;-62
2023/03/22 06:21:51;;;;;;;26.93;3.90;;;10.50;99.90;;;;;;4989329;28;20214;-62
2023/03/22 06:24:17;;;;;;;32.63;4.30;;;10.50;99.90;;;;;;4991660;28;20179;-62
2023/03/22 06:26:43;;;;;;;36.20;4.30;;;10.50;99.90;;;;;;4991484;28;20182;-62
2023/03/22 06:29:09;;;;;;;28.50;4.20;;;10.40;99.90;;;;;;4990288;28;20174;-62
2023/03/22 06:31:35;;;;;;;35.10;4.63;;;10.40;99.90;;;;;;4991390;28;20186;-62
2023/03/22 06:34:00;;;;;;;32.47;5.00;;;10.30;99.90;;;;;;4990820;28;20693;-62
2023/03/22 06:36:26;;;;;;;32.73;4.50;;;10.30;99.90;;;;;;4990495;28;20645;-63
2023/03/22 06:38:52;;;;;;;34.30;4.57;;;10.30;99.90;;;;;;4990968;28;20254;-62
2023/03/22 06:41:18;;;;;;;33.50;4.23;;;10.30;99.90;;;;;;4990254;28;20281;-62
2023/03/22 06:43:44;;;;;;;38.63;4.77;;;10.30;99.90;;;;;;4990191;28;20172;-62
2023/03/22 06:46:10;;;;;;;29.93;4.33;;;10.30;99.90;;;;;;4991449;28;20178;-62
2023/03/22 06:48:35;;;;;;;40.27;4.80;;;10.30;99.90;;;;;;4991172;28;20180;-62
2023/03/22 06:51:01;;;;;;;32.10;5.00;;;10.30;99.90;;;;;;4990393;28;20643;-62
2023/03/22 06:53:27;;;;;;;30.10;4.77;;;9.70;99.90;;;;;;4989802;28;20171;-62
2023/03/22 06:55:52;;;;;;;40.63;5.37;;;10.20;99.90;;;;;;4989744;28;20954;-62
2023/03/22 06:58:18;;;;;;;40.47;5.27;;;10.30;99.90;;;;;;4991051;28;20661;-62
2023/03/22 07:00:43;;;;;;;36.50;4.90;;;10.30;99.90;;;;;;4990905;28;20685;-62
2023/03/22 07:03:10;;;;;;;30.20;5.13;;;;;;;;;;4991296;28;20179;-62
2023/03/22 07:05:35;;;;;;;34.57;5.03;;;10.40;99.90;;;;;;4990684;28;20190;-62
2023/03/22 07:08:01;;;;;;;30.57;4.60;;;;;;;;;;4990775;28;20171;-62
2023/03/22 07:10:27;;;;;;;33.43;4.67;;;10.40;99.90;;;;;;4990165;28;20176;-62
2023/03/22 07:12:53;;;;;;;36.43;5.40;;;10.30;99.90;;;;;;4991368;28;20178;-61
2023/03/22 07:15:23;;;;;;;31.50;4.77;;;10.40;99.90;;;;;;4990778;28;20213;-62
2023/03/22 07:17:51;;;;;;;38.53;5.50;;;10.40;99.90;;;;;;4990387;28;20190;-62
2023/03/22 07:20:18;;;;;;;35.00;5.10;;;10.50;99.90;;;;;;4993902;28;20242;-62
2023/03/22 07:22:44;;;;;;;30.30;4.80;;;10.50;99.90;;;;;;4994895;28;20175;-61
2023/03/22 07:25:10;;;;;;;34.77;5.30;;;10.60;99.90;;;;;;4995046;28;20167;-63
2023/03/22 07:27:36;;;;;;;36.83;4.60;;;10.60;99.90;;;;;;4975732;28;20186;-61
2023/03/22 07:30:04;;;;;;;40.20;5.43;;;10.60;99.90;;;;;;4994943;28;20181;-64
2023/03/22 07:32:30;;;;;;;38.97;5.80;;;10.60;99.90;;;;;;4994752;28;20638;-64
2023/03/22 07:34:55;;;;;;;42.53;5.97;;;10.70;99.90;;;;;;4994045;28;20229;-65
2023/03/22 07:37:21;;;;;;;29.73;5.20;;;10.70;99.90;;;;;;4994713;28;20187;-66
2023/03/22 07:39:47;;;;;;;47.80;5.90;;;10.70;99.90;;;;;;4993126;28;20171;-65
2023/03/22 07:42:13;;;;;;;45.10;6.60;;;10.70;99.90;;;;;;4993644;28;20187;-66
2023/03/22 07:44:38;;;;;;;46.87;6.37;;;10.70;99.90;;;;;;4993587;28;20191;-65
2023/03/22 07:47:04;;;;;;;37.83;4.50;;;10.70;99.90;;;;;;4993850;28;20684;-66
2023/03/22 07:49:30;;;;;;;39.57;5.87;;;10.70;99.90;;;;;;4993714;28;20262;-66
2023/03/22 07:51:56;;;;;;;37.50;4.83;;;10.90;99.90;;;;;;4980768;28;20172;-66
2023/03/22 07:54:21;;;;;;;37.67;6.00;;;10.80;99.90;;;;;;4987423;28;20172;-66
2023/03/22 07:56:47;;;;;;;35.37;5.17;;;10.90;99.90;;;;;;4994556;28;20179;-65
2023/03/22 07:59:15;;;;;;;42.47;5.17;;;10.90;99.90;;;;;;4993606;28;20325;-66
2023/03/22 08:01:41;;;;;;;41.27;5.53;;;10.80;99.90;;;;;;4993350;28;20219;-67
2023/03/22 08:04:07;;;;;;;41.77;5.93;;;10.80;99.90;;;;;;4993473;28;20179;-67
2023/03/22 08:06:35;;;;;;;33.57;4.60;;;10.90;99.90;;;;;;4992819;28;20186;-67
2023/03/22 08:09:02;;;;;;;34.07;5.43;;;10.80;99.90;;;;;;4991736;28;20179;-66
2023/03/22 08:11:28;;;;;;;32.67;5.80;;;10.80;99.90;;;;;;4992406;28;20186;-66
2023/03/22 08:13:54;;;;;;;36.30;5.33;;;10.80;99.90;;;;;;4993708;28;20175;-69
2023/03/22 08:16:20;;;;;;;37.80;5.70;;;10.80;99.90;;;;;;4993780;28;20222;-70
2023/03/22 08:18:46;;;;;;;36.87;5.73;;;10.90;99.90;;;;;;4992610;28;20215;-72
2023/03/22 08:21:11;;;;;;;35.47;6.20;;;10.90;99.90;;;;;;4993077;28;20214;-72
2023/03/22 08:23:37;;;;;;;32.23;5.10;;;10.90;99.90;;;;;;4992729;28;20175;-73
2023/03/22 08:26:03;;;;;;;30.00;4.93;;;11.10;99.90;;;;;;4994419;28;20638;-74
2023/03/22 08:28:28;;;;;;;28.93;4.90;;;11.20;99.90;;;;;;4993010;28;20197;-73
2023/03/22 08:30:54;;;;;;;42.53;5.63;;;;;;;;;;4993169;28;20182;-73
2023/03/22 08:33:22;;;;;;;38.17;5.23;;;11.30;99.90;;;;;;4992838;28;20175;-72
2023/03/22 08:35:48;;;;;;;33.17;5.70;;;11.40;99.90;;;;;;4993732;28;20221;-72
2023/03/22 08:38:14;;;;;;;36.10;4.20;;;;;;;;;;4993565;28;20207;-73
2023/03/22 08:40:40;;;;;;;32.90;5.30;;;11.60;99.90;;;;;;4984627;28;20804;-73
2023/03/22 08:43:05;;;;;;;30.67;4.97;;;11.90;99.90;;;;;;4992675;28;20270;-73
2023/03/22 08:45:31;;;;;;;31.93;4.27;;;12.10;99.90;;;;;;4993355;28;20183;-75
2023/03/22 08:47:58;;;;;;;33.83;4.47;;;12.80;99.90;;;;;;4993331;28;20179;-74
2023/03/22 08:50:24;;;;;;;29.70;4.93;;;14.40;99.90;;;;;;4993701;28;20186;-71
2023/03/22 08:52:50;;;;;;;28.63;5.05;;;16.10;99.90;;;;;;4993221;28;20338;-71
2023/03/22 08:55:16;;;;;;;30.50;5.70;;;17.20;99.90;;;;;;4993278;28;20661;-71
2023/03/22 08:57:43;;;;;;;32.50;4.75;;;15.90;99.90;;;;;;4993213;28;20222;-72
2023/03/22 09:00:11;;;;;;;35.30;4.97;;;16.30;99.90;;;;;;4987406;28;20203;-71
2023/03/22 09:02:37;;;;;;;29.20;5.10;;;16.30;99.90;;;;;;4973880;28;20184;-72
2023/03/22 09:05:03;;;;;;;23.48;4.15;;;16.70;99.90;;;;;;4972919;28;20172;-74
2023/03/22 09:07:29;;;;;;;32.13;4.35;;;16.20;99.90;;;;;;4988811;28;20288;-73
2023/03/22 09:09:55;;;;;;;33.13;5.53;;;15.50;99.90;;;;;;4985790;28;20314;-73
2023/03/22 09:12:20;;;;;;;23.38;4.18;;;14.80;99.90;;;;;;4992161;28;20739;-73
2023/03/22 09:14:48;;;;;;;18.10;3.38;;;;;;;;;;4976914;28;20179;-74
2023/03/22 09:17:14;;;;;;;22.23;3.83;;;14.10;99.90;;;;;;4993150;28;20257;-74
2023/03/22 09:19:40;;;;;;;30.00;4.43;;;15.80;99.90;;;;;;4993382;28;20506;-74
2023/03/22 09:22:05;;;;;;;29.38;4.05;;;15.60;99.90;;;;;;4992755;28;20583;-74
2023/03/22 09:24:31;;;;;;;28.80;4.35;;;16.60;99.90;;;;;;4993166;28;20187;-75
2023/03/22 09:26:57;;;;;;;22.60;4.05;;;15.20;99.90;;;;;;4993111;28;20262;-74
2023/03/22 09:29:23;;;;;;;25.63;4.10;;;14.20;99.90;;;;;;4992805;28;20602;-72
2023/03/22 09:31:49;;;;;;;25.15;4.70;;;13.30;99.90;;;;;;4992641;28;20163;-75
2023/03/22 09:34:15;;;;;;;16.23;2.80;;;13.60;99.90;;;;;;4992392;28;20660;-73
2023/03/22 09:36:41;;;;;;;29.38;4.50;;;14.10;99.90;;;;;;4991501;28;20183;-72
2023/03/22 09:39:08;;;;;;;23.15;4.15;;;14.40;99.90;;;;;;4992371;28;20195;-72
2023/03/22 09:41:43;;;;;;;38.25;5.03;;;15.10;99.90;;;;;;4987128;28;20546;-72
2023/03/22 09:44:28;;;;;;;31.10;3.83;;;15.70;99.90;;;;;;4982801;28;20695;-72
2023/03/22 09:46:58;;;;;;;32.15;4.57;;;14.60;99.90;;;;;;4992991;28;20206;-72
2023/03/22 09:49:29;;;;;;;36.47;5.97;;;14.30;99.90;;;;;;4973259;28;20683;-72
2023/03/22 09:51:55;;;;;;;22.25;2.85;;;14.50;99.90;;;;;;4972300;28;20168;-72
2023/03/22 09:54:36;;;;;;;15.75;3.33;;;14.50;99.90;;;;;;4972283;28;20214;-72
2023/03/22 09:57:27;;;;;;;37.92;5.47;;;15.20;99.90;;;;;;4972149;28;20251;-72
2023/03/22 10:00:12;;;;;;;28.95;4.70;;;15.60;99.90;;;;;;4971995;28;20184;-71
2023/03/22 10:02:45;;;;;;;26.52;4.43;;;16.80;99.90;;;;;;4972025;28;20199;-73
2023/03/22 10:05:31;;;;;;;29.40;4.30;;;17.80;99.90;;;;;;4972511;28;20164;-72
2023/03/22 10:08:15;;;;;;;31.25;5.28;;;18.70;99.90;;;;;;4973174;28;20179;-72
2023/03/22 10:10:41;;;;;;;23.80;4.53;;;16.90;99.90;;;;;;4973042;28;20168;-72
2023/03/22 10:13:39;;;;;;;29.80;4.68;;;16.30;99.90;;;;;;4973144;28;20203;-72
2023/03/22 10:16:10;;;;;;;28.70;4.60;;;17.40;99.90;;;;;;4971887;28;20222;-72
2023/03/22 10:18:42;;;;;;;27.02;5.07;;;18.90;99.90;;;;;;4972975;28;20174;-72
2023/03/22 10:21:11;;;;;;;26.48;4.90;;;18.60;99.90;;;;;;4972820;28;20749;-72
2023/03/22 10:24:02;;;;;;;29.35;5.30;;;19.30;99.90;;;;;;4972839;28;20195;-72
2023/03/22 10:26:38;;;;;;;25.42;4.57;;;18.90;99.90;;;;;;4967208;28;20200;-72
2023/03/22 10:29:36;;;;;;;24.35;4.68;;;19.10;99.90;;;;;;4972753;28;20175;-72
2023/03/22 10:32:23;;;;;;;20.63;3.33;;;19.40;99.90;;;;;;4968879;28;20195;-72
2023/03/22 10:34:50;;;;;;;26.13;4.40;;;18.70;99.90;;;;;;4972481;28;20212;-72
2023/03/22 10:37:21;;;;;;;23.70;4.28;;;19.00;99.90;;;;;;4972634;28;20188;-71
2023/03/22 10:39:57;;;;;;;23.70;4.50;;;19.10;99.90;;;;;;4972588;28;20168;-72
2023/03/22 10:42:27;;;;;;;15.18;3.38;;;18.70;99.90;;;;;;4972502;28;20191;-72
2023/03/22 10:44:54;;;;;;;26.30;4.28;;;18.60;99.90;;;;;;4972474;28;20183;-72
2023/03/22 10:47:32;;;;;;;25.40;4.68;;;18.60;99.90;;;;;;4972509;28;20249;-72
2023/03/22 10:50:02;;;;;;;18.85;4.00;;;19.20;99.90;;;;;;4972503;28;20211;-71
2023/03/22 10:52:42;;;;;;;21.60;4.07;;;18.90;99.90;;;;;;4972292;28;20639;-71
2023/03/22 10:55:11;;;;;;;22.88;4.70;;;19.20;99.90;;;;;;4972138;28;20180;-72
2023/03/22 10:57:38;;;;;;;27.73;4.32;;;18.80;99.90;;;;;;4972129;28;20263;-73
2023/03/22 11:00:12;;;;;;;18.33;4.25;;;18.90;99.90;;;;;;4970968;28;20227;-74
2023/03/22 11:02:51;;;;;;;27.60;4.72;;;19.50;99.90;;;;;;4971611;28;20191;-74
2023/03/22 11:05:26;;;;;;;28.40;4.93;;;19.90;99.90;;;;;;4984526;28;20658;-73
2023/03/22 11:07:52;;;;;;;17.52;3.55;;;20.30;99.90;;;;;;4987750;28;20261;-71
2023/03/22 11:10:26;;;;;;;23.48;5.22;;;20.40;99.90;;;;;;4990462;28;20186;-72
2023/03/22 11:13:14;;;;;;;19.67;4.18;;;20.00;99.90;;;;;;4991443;28;20202;-73
2023/03/22 11:15:48;;;;;;;25.60;5.00;;;19.60;99.90;;;;;;4989456;28;20179;-74
2023/03/22 11:18:18;;;;;;;27.90;4.63;;;19.40;99.90;;;;;;4990823;28;20334;-74
2023/03/22 11:21:06;;;;;;;26.42;3.92;;;18.30;99.90;;;;;;4990444;28;20530;-73
2023/03/22 11:23:34;;;;;;;22.15;3.45;;;18.30;99.90;;;;;;4989606;28;20186;-73
2023/03/22 11:26:10;;;;;;;27.50;4.32;;;17.70;99.90;;;;;;4989592;28;20638;-74
2023/03/22 11:28:48;;;;;;;26.42;4.38;;;17.30;99.90;;;;;;4990629;28;20645;-73
2023/03/22 11:31:18;;;;;;;22.67;3.95;;;17.20;99.90;;;;;;4989805;28;20257;-73
2023/03/22 11:33:55;;;;;;;18.50;4.15;;;17.80;99.90;;;;;;4990338;28;20206;-74
2023/03/22 11:36:21;;;;;;;18.25;3.75;;;18.40;99.90;;;;;;4990896;28;20213;-73
2023/03/22 11:38:47;;;;;;;23.30;3.30;;;17.80;99.90;;;;;;4990194;28;20639;-73
2023/03/22 11:41:30;;;;;;;21.27;3.58;;;17.00;99.90;;;;;;4989854;28;20697;-72
2023/03/22 11:44:01;;;;;;;14.70;2.72;;;16.50;99.90;;;;;;4990074;28;20274;-74
2023/03/22 11:46:28;;;;;;;12.52;2.97;;;17.20;99.90;;;;;;4989935;28;20252;-72
2023/03/22 11:48:59;;;;;;;16.90;2.70;;;17.70;99.90;;;;;;4989998;28;20202;-72
2023/03/22 11:51:32;;;;;;;25.85;4.22;;;17.70;99.90;;;;;;4989907;28;20170;-72
2023/03/22 11:54:08;;;;;;;11.48;3.22;;;18.50;99.90;;;;;;4990977;28;20174;-72
2023/03/22 11:56:40;;;;;;;16.88;3.90;;;18.60;99.90;;;;;;4973825;28;20187;-74
2023/03/22 11:59:12;;;;;;;15.73;3.38;;;19.00;99.90;;;;;;4989964;28;20183;-73
2023/03/22 12:01:40;;;;;;;17.38;2.20;;;18.90;99.90;;;;;;4980058;28;20214;-74
2023/03/22 12:04:12;;;;;;;15.02;3.13;;;18.00;99.90;;;;;;4991061;28;20290;-73
2023/03/22 12:06:39;;;;;;;10.07;2.72;;;17.10;99.90;;;;;;4979667;28;20179;-74
2023/03/22 12:09:34;;;;;;;14.57;2.13;;;16.60;99.90;;;;;;4975316;28;20164;-73
2023/03/22 12:12:02;;;;;;;25.55;3.45;;;16.00;99.90;;;;;;4975273;28;20180;-74
2023/03/22 12:14:45;;;;;;;14.98;2.88;;;15.90;99.90;;;;;;4975195;28;20247;-73
2023/03/22 12:17:23;;;;;;;16.20;2.70;;;15.80;99.90;;;;;;4975935;28;20202;-73
2023/03/22 12:20:15;;;;;;;26.60;4.03;;;16.30;99.90;;;;;;4994665;28;20253;-73
2023/03/22 12:22:46;;;;;;;15.80;2.78;;;16.10;99.90;;;;;;4977049;28;20199;-73
2023/03/22 12:25:19;;;;;;;19.60;3.38;;;15.70;99.90;;;;;;4994538;28;20694;-73
2023/03/22 12:27:51;;;;;;;21.05;3.13;;;15.50;99.90;;;;;;4994432;28;20194;-73
2023/03/22 12:30:21;;;;;;;31.35;4.75;;;15.50;99.90;;;;;;4994575;28;20171;-74
2023/03/22 12:33:05;;;;;;;25.83;4.60;;;15.30;99.90;;;;;;4994866;28;20254;-73
2023/03/22 12:35:33;;;;;;;22.90;4.07;;;15.30;99.90;;;;;;4994106;28;20226;-73
2023/03/22 12:38:13;;;;;;;20.90;3.80;;;15.00;99.90;;;;;;4994153;28;20175;-74
2023/03/22 12:40:39;;;;;;;26.48;4.22;;;14.70;99.90;;;;;;4994163;28;20219;-74
2023/03/22 12:43:40;;;;;;;24.27;4.28;;;14.70;99.90;;;;;;4994224;28;20199;-74
2023/03/22 12:46:12;;;;;;;29.02;4.32;;;14.50;99.90;;;;;;4980885;28;20640;-74
2023/03/22 12:49:08;;;;;;;26.97;3.77;;;14.70;99.90;;;;;;4994088;28;20258;-73
2023/03/22 12:51:35;;;;;;;32.78;4.90;;;14.60;99.90;;;;;;4994063;28;20293;-74
2023/03/22 12:54:01;;;;;;;24.45;4.22;;;14.60;99.90;;;;;;4993801;28;20167;-74
2023/03/22 12:56:38;;;;;;;29.10;4.18;;;14.70;99.90;;;;;;4994087;28;20187;-73